createdAt,value
2018-01-14T00:01:03.688Z,16.42
2018-01-14T00:03:31.223Z,17.60
2018-01-14T00:05:58.751Z,17.00
2018-01-14T00:08:27.035Z,17.27
2018-01-14T00:10:55.327Z,17.35
2018-01-14T00:13:22.844Z,16.92
2018-01-14T00:15:50.400Z,17.12
2018-01-14T00:18:17.924Z,16.17
2018-01-14T00:20:45.437Z,17.23
2018-01-14T00:23:13.764Z,15.15
2018-01-14T00:25:41.279Z,15.13
2018-01-14T00:28:09.582Z,15.20
2018-01-14T00:30:37.904Z,16.20
2018-01-14T00:33:05.422Z,15.13
2018-01-14T00:35:32.981Z,15.52
2018-01-14T00:38:00.527Z,15.60
2018-01-14T00:40:28.037Z,13.80
2018-01-14T00:42:55.584Z,14.23
2018-01-14T00:45:23.093Z,14.82
2018-01-14T00:47:50.610Z,13.62
2018-01-14T00:50:18.148Z,13.85
2018-01-14T00:52:45.649Z,14.75
2018-01-14T00:55:13.188Z,14.65
2018-01-14T00:57:40.726Z,14.13
2018-01-14T01:00:08.315Z,14.25
2018-01-14T01:02:35.827Z,13.70
2018-01-14T01:05:03.347Z,13.88
2018-01-14T01:07:31.638Z,14.25
2018-01-14T01:09:59.136Z,13.43
2018-01-14T01:12:26.693Z,14.27
2018-01-14T01:14:54.191Z,14.87
2018-01-14T01:17:21.723Z,14.00
2018-01-14T01:19:49.263Z,13.38
2018-01-14T01:22:16.782Z,14.50
2018-01-14T01:24:45.127Z,14.35
2018-01-14T01:27:12.644Z,13.35
2018-01-14T01:29:40.144Z,14.68
2018-01-14T01:32:07.685Z,14.25
2018-01-14T01:34:35.214Z,15.95
2018-01-14T01:37:02.751Z,15.65
2018-01-14T01:39:30.259Z,14.55
2018-01-14T01:41:57.809Z,14.38
2018-01-14T01:44:25.333Z,14.50
2018-01-14T01:46:53.624Z,13.82
2018-01-14T01:49:21.183Z,13.57
2018-01-14T01:51:48.707Z,13.80
2018-01-14T01:54:16.238Z,13.77
2018-01-14T01:56:43.741Z,12.88
2018-01-14T01:59:11.253Z,14.27
2018-01-14T02:01:38.803Z,13.98
2018-01-14T02:04:06.362Z,15.23
2018-01-14T02:06:33.893Z,15.38
2018-01-14T02:09:01.394Z,13.80
2018-01-14T02:11:28.954Z,12.70
2018-01-14T02:13:56.473Z,14.52
2018-01-14T02:16:24.066Z,14.57
2018-01-14T02:18:51.563Z,13.57
2018-01-14T02:21:19.848Z,13.48
2018-01-14T02:23:47.395Z,14.18
2018-01-14T02:26:15.711Z,14.45
2018-01-14T02:28:43.217Z,13.70
2018-01-14T02:31:10.748Z,13.57
2018-01-14T02:33:38.255Z,12.75
2018-01-14T02:36:06.551Z,14.25
2018-01-14T02:38:34.078Z,14.20
2018-01-14T02:41:02.386Z,13.23
2018-01-14T02:43:29.935Z,15.07
2018-01-14T02:45:58.207Z,14.07
2018-01-14T02:48:25.756Z,14.80
2018-01-14T02:50:54.171Z,14.45
2018-01-14T02:53:21.707Z,14.05
2018-01-14T02:55:50.005Z,14.45
2018-01-14T02:58:17.511Z,14.68
2018-01-14T03:00:45.012Z,14.07
2018-01-14T03:03:12.542Z,14.65
2018-01-14T03:05:40.829Z,14.00
2018-01-14T03:08:09.111Z,14.57
2018-01-14T03:10:37.396Z,13.43
2018-01-14T03:13:04.910Z,14.20
2018-01-14T03:15:32.452Z,15.02
2018-01-14T03:17:59.996Z,14.45
2018-01-14T03:20:27.535Z,15.75
2018-01-14T03:22:55.050Z,15.02
2018-01-14T03:25:22.556Z,15.07
2018-01-14T03:27:50.090Z,13.73
2018-01-14T03:30:18.373Z,14.73
2018-01-14T03:32:46.678Z,14.68
2018-01-14T03:35:14.295Z,15.07
2018-01-14T03:37:42.605Z,14.50
2018-01-14T03:40:10.131Z,14.10
2018-01-14T03:42:38.437Z,14.13
2018-01-14T03:45:05.958Z,14.75
2018-01-14T03:47:33.507Z,14.23
2018-01-14T03:50:01.024Z,15.57
2018-01-14T03:52:28.563Z,14.98
2018-01-14T03:54:56.099Z,16.05
2018-01-14T03:57:23.610Z,15.60
2018-01-14T03:59:51.142Z,15.20
2018-01-14T04:02:18.653Z,14.85
2018-01-14T04:04:46.174Z,15.82
2018-01-14T04:07:13.712Z,14.93
2018-01-14T04:09:41.231Z,14.45
2018-01-14T04:12:08.773Z,16.52
2018-01-14T04:14:36.294Z,16.20
2018-01-14T04:17:03.832Z,14.90
2018-01-14T04:19:32.246Z,15.40
2018-01-14T04:21:59.796Z,15.73
2018-01-14T04:24:27.299Z,14.32
2018-01-14T04:26:54.821Z,16.65
2018-01-14T04:29:22.331Z,16.23
2018-01-14T04:31:49.872Z,16.37
2018-01-14T04:34:17.407Z,16.58
2018-01-14T04:36:44.910Z,15.90
2018-01-14T04:39:12.451Z,16.50
2018-01-14T04:41:39.968Z,15.85
2018-01-14T04:44:07.532Z,17.27
2018-01-14T04:46:35.057Z,17.62
2018-01-14T04:49:03.343Z,16.52
2018-01-14T04:51:31.637Z,16.25
2018-01-14T04:53:59.137Z,16.62
2018-01-14T04:56:26.685Z,16.33
2018-01-14T04:58:54.204Z,17.73
2018-01-14T05:01:21.724Z,16.73
2018-01-14T05:03:49.274Z,17.58
2018-01-14T05:06:16.784Z,18.08
2018-01-14T05:08:44.313Z,18.58
2018-01-14T05:11:12.603Z,18.70
2018-01-14T05:13:41.010Z,18.75
2018-01-14T05:16:08.531Z,18.87
2018-01-14T05:18:36.817Z,18.50
2018-01-14T05:21:05.100Z,17.92
2018-01-14T05:23:32.639Z,18.70
2018-01-14T05:26:01.028Z,18.87
2018-01-14T05:28:28.527Z,17.77
2018-01-14T05:30:56.024Z,19.35
2018-01-14T05:33:23.634Z,18.55
2018-01-14T05:35:51.156Z,18.95
2018-01-14T05:38:19.434Z,19.20
2018-01-14T05:40:47.733Z,19.80
2018-01-14T05:43:15.265Z,19.50
2018-01-14T05:45:43.647Z,18.33
2018-01-14T05:48:11.931Z,19.35
2018-01-14T05:50:40.194Z,19.42
2018-01-14T05:53:08.498Z,19.30
2018-01-14T05:55:36.010Z,18.95
2018-01-14T05:58:03.535Z,20.30
2018-01-14T06:00:31.071Z,20.75
2018-01-14T06:02:58.610Z,19.00
2018-01-14T06:05:26.894Z,20.55
2018-01-14T06:07:54.403Z,20.50
2018-01-14T06:10:21.925Z,20.40
2018-01-14T06:12:49.465Z,19.95
2018-01-14T06:15:17.738Z,19.58
2018-01-14T06:17:46.043Z,19.65
2018-01-14T06:20:13.562Z,19.45
2018-01-14T06:22:41.098Z,19.52
2018-01-14T06:25:08.609Z,21.05
2018-01-14T06:27:36.140Z,20.62
2018-01-14T06:30:03.717Z,19.87
2018-01-14T06:32:32.021Z,21.10
2018-01-14T06:34:59.526Z,21.83
2018-01-14T06:37:27.069Z,21.40
2018-01-14T06:39:54.813Z,21.00
2018-01-14T06:42:22.367Z,21.02
2018-01-14T06:44:49.879Z,20.80
2018-01-14T06:47:17.415Z,19.70
2018-01-14T06:49:44.914Z,20.48
2018-01-14T06:52:12.428Z,20.80
2018-01-14T06:54:39.962Z,20.65
2018-01-14T06:57:07.464Z,19.35
2018-01-14T06:59:34.962Z,20.30
2018-01-14T07:02:02.500Z,20.23
2018-01-14T07:04:30.803Z,19.52
2018-01-14T07:06:58.330Z,20.92
2018-01-14T07:09:25.849Z,21.10
2018-01-14T07:11:53.401Z,21.48
2018-01-14T07:14:20.908Z,18.90
2018-01-14T07:16:48.457Z,20.58
2018-01-14T07:19:16.731Z,21.95
2018-01-14T07:21:44.265Z,21.37
2018-01-14T07:24:11.775Z,19.98
2018-01-14T07:26:39.308Z,20.00
2018-01-14T07:29:06.829Z,21.77
2018-01-14T07:31:34.376Z,21.65
2018-01-14T07:34:01.924Z,20.52
2018-01-14T07:36:29.453Z,21.02
2018-01-14T07:38:57.760Z,20.90
2018-01-14T07:41:25.332Z,19.42
2018-01-14T07:43:52.836Z,19.20
2018-01-14T07:46:20.349Z,20.50
2018-01-14T07:48:47.896Z,21.67
2018-01-14T07:51:15.438Z,21.10
2018-01-14T07:53:42.983Z,20.80
2018-01-14T07:56:11.279Z,20.77
2018-01-14T07:58:38.806Z,19.73
2018-01-14T08:01:07.147Z,20.25
2018-01-14T08:03:35.401Z,20.55
2018-01-14T08:06:02.955Z,20.20
2018-01-14T08:08:30.504Z,20.33
2018-01-14T08:10:58.042Z,19.35
2018-01-14T08:13:26.457Z,19.85
2018-01-14T08:15:53.967Z,18.15
2018-01-14T08:18:21.511Z,19.73
2018-01-14T08:20:49.045Z,19.58
2018-01-14T08:23:16.617Z,20.20
2018-01-14T08:25:44.159Z,19.65
2018-01-14T08:28:11.678Z,20.42
2018-01-14T08:30:39.976Z,20.00
2018-01-14T08:33:07.515Z,19.58
2018-01-14T08:35:35.057Z,19.40
2018-01-14T08:38:03.340Z,19.67
2018-01-14T08:40:31.662Z,18.83
2018-01-14T08:42:59.198Z,20.45
2018-01-14T08:45:26.740Z,18.87
2018-01-14T08:47:55.029Z,19.35
2018-01-14T08:50:22.558Z,19.67
2018-01-14T08:52:50.110Z,20.02
2018-01-14T08:55:17.638Z,19.58
2018-01-14T08:57:45.164Z,19.20
2018-01-14T09:00:12.701Z,19.73
2018-01-14T09:02:41.031Z,18.85
2018-01-14T09:05:08.561Z,18.77
2018-01-14T09:07:36.101Z,18.83
2018-01-14T09:10:04.371Z,19.85
2018-01-14T09:12:32.720Z,18.90
2018-01-14T09:15:00.245Z,17.42
2018-01-14T09:17:27.777Z,20.00
2018-01-14T09:19:56.089Z,18.40
2018-01-14T09:22:23.642Z,19.62
2018-01-14T09:24:51.917Z,18.70
2018-01-14T09:27:19.431Z,18.52
2018-01-14T09:29:47.007Z,19.58
2018-01-14T09:32:15.334Z,20.20
2018-01-14T09:34:42.856Z,18.15
2018-01-14T09:37:10.407Z,18.48
2018-01-14T09:39:38.687Z,18.45
2018-01-14T09:42:06.953Z,19.20
2018-01-14T09:44:35.273Z,19.80
2018-01-14T09:47:02.783Z,19.00
2018-01-14T09:49:31.101Z,18.05
2018-01-14T09:51:58.654Z,18.48
2018-01-14T09:54:26.194Z,18.23
2018-01-14T09:56:53.722Z,17.95
2018-01-14T09:59:21.303Z,17.50
2018-01-14T10:01:49.606Z,17.90
2018-01-14T10:04:17.193Z,17.70
2018-01-14T10:06:44.736Z,17.48
2018-01-14T10:09:12.305Z,16.70
2018-01-14T10:11:39.853Z,16.80
2018-01-14T10:14:07.386Z,17.83
2018-01-14T10:16:34.917Z,17.67
2018-01-14T10:19:02.427Z,16.95
2018-01-14T10:21:30.014Z,16.65
2018-01-14T10:23:57.530Z,17.27
2018-01-14T10:26:25.081Z,17.40
2018-01-14T10:28:53.500Z,18.42
2018-01-14T10:31:21.071Z,16.08
2018-01-14T10:33:48.584Z,18.35
2018-01-14T10:36:16.127Z,18.15
2018-01-14T10:38:44.402Z,16.70
2018-01-14T10:41:12.713Z,17.80
2018-01-14T10:43:40.247Z,15.85
2018-01-14T10:46:07.835Z,17.77
2018-01-14T10:48:35.362Z,16.75
2018-01-14T10:51:02.895Z,16.33
2018-01-14T10:53:30.456Z,17.00
2018-01-14T10:55:57.983Z,16.40
2018-01-14T10:58:25.501Z,16.90
2018-01-14T11:00:58.083Z,16.20
2018-01-14T11:03:25.603Z,17.12
2018-01-14T11:05:53.186Z,15.30
2018-01-14T11:08:21.491Z,16.30
2018-01-14T11:10:49.018Z,15.65
2018-01-14T11:13:17.345Z,16.35
2018-01-14T11:15:44.854Z,16.48
2018-01-14T11:18:12.394Z,16.73
2018-01-14T11:20:40.721Z,15.35
2018-01-14T11:23:08.256Z,16.77
2018-01-14T11:25:37.107Z,16.23
2018-01-14T11:28:04.659Z,16.40
2018-01-14T11:30:32.257Z,16.05
2018-01-14T11:33:00.542Z,15.18
2018-01-14T11:35:28.079Z,15.85
2018-01-14T11:37:55.608Z,16.58
2018-01-14T11:40:23.352Z,14.55
2018-01-14T11:42:50.892Z,15.30
2018-01-14T11:45:18.436Z,14.18
2018-01-14T11:47:46.742Z,15.10
2018-01-14T11:50:14.284Z,15.90
2018-01-14T11:52:41.846Z,15.63
2018-01-14T11:55:09.360Z,13.60
2018-01-14T11:57:36.910Z,14.85
2018-01-14T12:00:04.468Z,15.30
2018-01-14T12:02:32.024Z,14.73
2018-01-14T12:04:59.592Z,15.35
2018-01-14T12:07:27.161Z,15.95
2018-01-14T12:09:54.723Z,14.80
2018-01-14T12:12:22.282Z,14.07
2018-01-14T12:14:49.850Z,14.57
2018-01-14T12:17:17.431Z,13.15
2018-01-14T12:19:45.020Z,13.70
2018-01-14T12:22:12.615Z,14.25
2018-01-14T12:24:40.138Z,15.18
2018-01-14T12:27:07.697Z,14.48
2018-01-14T12:29:35.235Z,14.73
2018-01-14T12:32:02.774Z,13.75
2018-01-14T12:34:40.021Z,13.62
2018-01-14T12:37:07.553Z,13.82
2018-01-14T12:39:35.112Z,14.00
2018-01-14T12:42:02.657Z,13.60
2018-01-14T12:44:30.187Z,13.15
2018-01-14T12:46:57.735Z,12.48
2018-01-14T12:49:25.608Z,13.10
2018-01-14T12:51:53.128Z,13.68
2018-01-14T12:54:20.671Z,12.55
2018-01-14T12:56:48.188Z,13.40
2018-01-14T12:59:15.759Z,13.38
2018-01-14T13:01:44.088Z,12.37
2018-01-14T13:04:11.604Z,13.75
2018-01-14T13:06:39.919Z,11.77
2018-01-14T13:09:07.429Z,12.40
2018-01-14T13:11:35.733Z,12.98
2018-01-14T13:14:03.250Z,12.82
2018-01-14T13:16:30.943Z,12.75
2018-01-14T13:18:58.645Z,13.05
2018-01-14T13:21:26.158Z,13.07
2018-01-14T13:23:53.676Z,13.35
2018-01-14T13:26:21.268Z,13.00
2018-01-14T13:28:49.584Z,13.13
2018-01-14T13:31:17.119Z,13.60
2018-01-14T13:33:44.671Z,12.52
2018-01-14T13:36:12.206Z,12.68
2018-01-14T13:38:39.715Z,13.02
2018-01-14T13:41:07.276Z,12.85
2018-01-14T13:43:34.790Z,12.23
2018-01-14T13:46:02.326Z,12.90
2018-01-14T13:48:29.864Z,12.30
2018-01-14T13:50:57.369Z,12.53
2018-01-14T13:53:25.682Z,12.60
2018-01-14T13:55:53.203Z,12.37
2018-01-14T13:58:20.747Z,12.90
2018-01-14T14:00:48.285Z,12.10
2018-01-14T14:03:15.826Z,12.87
2018-01-14T14:05:43.334Z,12.27
2018-01-14T14:08:11.681Z,11.83
2018-01-14T14:10:39.190Z,11.10
2018-01-14T14:13:07.490Z,12.63
2018-01-14T14:15:35.024Z,12.17
2018-01-14T14:18:02.545Z,13.43
2018-01-14T14:20:30.107Z,13.45
2018-01-14T14:22:57.627Z,12.43
2018-01-14T14:25:25.264Z,12.57
2018-01-14T14:27:52.807Z,12.25
2018-01-14T14:30:21.115Z,13.27
2018-01-14T14:32:48.650Z,13.52
2018-01-14T14:35:16.944Z,12.75
2018-01-14T14:37:44.486Z,12.15
2018-01-14T14:40:12.768Z,12.32
2018-01-14T14:42:41.066Z,13.68
2018-01-14T14:45:08.592Z,12.95
2018-01-14T14:47:37.002Z,12.10
2018-01-14T14:50:04.536Z,13.05
2018-01-14T14:52:32.900Z,12.70
2018-01-14T14:55:00.482Z,12.23
2018-01-14T14:57:28.014Z,12.65
2018-01-14T14:59:55.565Z,14.00
2018-01-14T15:02:23.091Z,11.90
2018-01-14T15:04:50.634Z,12.40
2018-01-14T15:07:18.191Z,13.43
2018-01-14T15:09:45.716Z,12.75
2018-01-14T15:12:14.047Z,12.13
2018-01-14T15:14:41.578Z,12.30
2018-01-14T15:17:09.152Z,12.15
2018-01-14T15:19:36.783Z,12.57
2018-01-14T15:22:04.338Z,12.10
2018-01-14T15:24:31.912Z,12.32
2018-01-14T15:26:59.442Z,12.20
2018-01-14T15:29:26.992Z,12.25
2018-01-14T15:31:54.509Z,13.70
2018-01-14T15:34:22.043Z,12.75
2018-01-14T15:36:49.578Z,13.30
2018-01-14T15:39:17.128Z,12.10
2018-01-14T15:41:44.655Z,11.02
2018-01-14T15:44:12.199Z,12.07
2018-01-14T15:46:39.730Z,12.13
2018-01-14T15:49:07.291Z,11.25
2018-01-14T15:51:35.576Z,13.10
2018-01-14T15:54:03.122Z,12.80
2018-01-14T15:56:31.429Z,12.68
2018-01-14T15:58:58.966Z,12.55
2018-01-14T16:01:26.520Z,12.70
2018-01-14T16:03:54.853Z,11.57
2018-01-14T16:06:22.372Z,12.30
2018-01-14T16:08:49.915Z,12.20
2018-01-14T16:11:18.259Z,11.73
2018-01-14T16:13:45.813Z,11.65
2018-01-14T16:16:13.360Z,12.23
2018-01-14T16:18:40.888Z,13.40
2018-01-14T16:21:08.450Z,11.48
2018-01-14T16:23:36.004Z,12.82
2018-01-14T16:26:03.578Z,10.45
2018-01-14T16:28:31.097Z,11.85
2018-01-14T16:30:58.623Z,11.52
2018-01-14T16:33:26.186Z,13.85
2018-01-14T16:35:53.766Z,14.35
2018-01-14T16:38:21.320Z,15.80
2018-01-14T16:40:48.849Z,17.62
2018-01-14T16:43:16.403Z,19.33
2018-01-14T16:45:43.948Z,19.67
2018-01-14T16:48:11.487Z,15.35
2018-01-14T16:50:39.005Z,17.73
2018-01-14T16:53:06.542Z,16.02
2018-01-14T16:55:34.125Z,14.55
2018-01-14T16:58:01.636Z,14.77
2018-01-14T17:00:29.195Z,13.98
2018-01-14T17:02:56.750Z,14.63
2018-01-14T17:05:24.307Z,14.73
2018-01-14T17:07:51.848Z,14.80
2018-01-14T17:10:20.207Z,17.50
2018-01-14T17:12:47.729Z,15.25
2018-01-14T17:15:15.330Z,13.25
2018-01-14T17:17:42.805Z,13.45
2018-01-14T17:20:11.135Z,14.30
2018-01-14T17:22:38.703Z,15.80
2018-01-14T17:25:06.246Z,16.70
2018-01-14T17:27:33.794Z,16.23
2018-01-14T17:30:01.333Z,13.32
2018-01-14T17:32:28.863Z,14.32
2018-01-14T17:34:56.411Z,14.55
2018-01-14T17:37:23.926Z,12.70
2018-01-14T17:39:51.440Z,12.80
2018-01-14T17:42:19.004Z,12.95
2018-01-14T17:44:47.314Z,13.70
2018-01-14T17:47:14.874Z,11.30
2018-01-14T17:49:42.410Z,14.05
2018-01-14T17:52:10.725Z,14.15
2018-01-14T17:54:38.241Z,17.42
2018-01-14T17:57:06.574Z,17.50
2018-01-14T17:59:34.093Z,15.90
2018-01-14T18:02:01.640Z,13.75
2018-01-14T18:04:29.951Z,12.18
2018-01-14T18:06:57.517Z,14.80
2018-01-14T18:09:25.038Z,14.30
2018-01-14T18:11:53.348Z,14.73
2018-01-14T18:14:20.930Z,12.52
2018-01-14T18:16:59.479Z,15.45
2018-01-14T18:19:27.783Z,16.30
2018-01-14T18:21:55.302Z,15.77
2018-01-14T18:24:22.913Z,15.95
2018-01-14T18:26:50.436Z,17.30
2018-01-14T18:29:19.427Z,15.70
2018-01-14T18:31:47.718Z,16.80
2018-01-14T18:34:15.257Z,15.98
2018-01-14T18:36:43.539Z,15.52
2018-01-14T18:39:11.082Z,16.00
2018-01-14T18:41:38.607Z,13.73
2018-01-14T18:44:06.150Z,14.70
2018-01-14T18:46:33.679Z,15.07
2018-01-14T18:49:01.992Z,14.85
2018-01-14T18:51:29.541Z,14.82
2018-01-14T18:53:57.860Z,15.02
2018-01-14T18:56:25.427Z,14.35
2018-01-14T18:58:53.080Z,14.77
2018-01-14T19:01:20.651Z,14.65
2018-01-14T19:03:48.310Z,14.50
2018-01-14T19:06:16.641Z,14.48
2018-01-14T19:08:44.182Z,13.13
2018-01-14T19:11:11.738Z,12.85
2018-01-14T19:13:39.301Z,13.68
2018-01-14T19:16:06.967Z,12.68
2018-01-14T19:18:34.669Z,13.50
2018-01-14T19:21:02.453Z,13.15
2018-01-14T19:23:30.904Z,12.75
2018-01-14T19:25:58.557Z,12.45
2018-01-14T19:28:26.181Z,12.93
2018-01-14T19:30:54.973Z,12.37
2018-01-14T19:33:23.369Z,13.18
2018-01-14T19:35:51.122Z,11.63
2018-01-14T19:38:18.801Z,11.38
2018-01-14T19:40:47.334Z,12.00
2018-01-14T19:43:15.306Z,11.63
2018-01-14T19:45:43.088Z,12.20
2018-01-14T19:48:10.864Z,11.88
2018-01-14T19:50:38.772Z,13.73
2018-01-14T19:53:06.610Z,12.37
2018-01-14T19:55:34.863Z,12.90
2018-01-14T19:58:03.098Z,11.60
2018-01-14T20:00:31.309Z,11.68
2018-01-14T20:02:59.266Z,12.35
2018-01-14T20:05:32.077Z,12.07
2018-01-14T20:08:00.989Z,12.35
2018-01-14T20:10:28.998Z,12.88
2018-01-14T20:12:57.005Z,13.20
2018-01-14T20:15:25.310Z,20.92
2018-01-14T20:17:54.301Z,21.90
2018-01-14T20:20:22.175Z,17.67
2018-01-14T20:22:51.292Z,20.55
2018-01-14T20:25:19.780Z,17.20
2018-01-14T20:27:49.047Z,16.90
2018-01-14T20:30:17.633Z,14.82
2018-01-14T20:32:49.057Z,15.65
2018-01-14T20:35:17.251Z,16.20
2018-01-14T20:37:45.145Z,15.10
2018-01-14T20:40:13.927Z,14.30
2018-01-14T20:42:43.116Z,14.82
2018-01-14T20:45:12.680Z,14.27
2018-01-14T20:47:41.406Z,14.25
2018-01-14T20:50:09.965Z,14.02
2018-01-14T20:52:37.621Z,15.88
2018-01-14T20:55:06.635Z,18.17
2018-01-14T20:57:35.936Z,15.45
2018-01-14T21:00:03.493Z,17.80
2018-01-14T21:02:31.032Z,16.00
2018-01-14T21:04:58.733Z,14.87
2018-01-14T21:07:26.297Z,14.43
2018-01-14T21:09:55.470Z,15.15
2018-01-14T21:12:23.312Z,14.43
2018-01-14T21:14:50.962Z,12.95
2018-01-14T21:17:18.894Z,14.10
2018-01-14T21:19:46.885Z,13.93
2018-01-14T21:22:15.361Z,14.38
2018-01-14T21:24:43.795Z,13.13
2018-01-14T21:27:11.745Z,14.90
2018-01-14T21:29:39.323Z,14.25
2018-01-14T21:32:07.201Z,13.65
2018-01-14T21:34:35.313Z,13.80
2018-01-14T21:37:04.019Z,13.45
2018-01-14T21:39:32.204Z,14.13
2018-01-14T21:42:00.271Z,14.40
2018-01-14T21:44:28.026Z,13.02
2018-01-14T21:46:55.693Z,14.15
2018-01-14T21:49:23.438Z,14.07
2018-01-14T21:51:51.708Z,14.77
2018-01-14T21:54:19.671Z,14.05
2018-01-14T21:56:47.264Z,13.40
2018-01-14T21:59:15.631Z,13.57
2018-01-14T22:01:43.340Z,18.12
2018-01-14T22:04:11.677Z,14.63
2018-01-14T22:06:40.276Z,13.35
2018-01-14T22:09:07.918Z,13.10
2018-01-14T22:11:35.608Z,11.55
2018-01-14T22:14:03.922Z,13.07
2018-01-14T22:16:31.983Z,12.75
2018-01-14T22:19:00.081Z,14.05
2018-01-14T22:21:28.605Z,15.20
2018-01-14T22:23:56.369Z,15.23
2018-01-14T22:26:23.950Z,14.65
2018-01-14T22:28:51.968Z,13.73
2018-01-14T22:31:20.631Z,14.95
2018-01-14T22:33:48.422Z,14.48
2018-01-14T22:36:16.118Z,19.10
2018-01-14T22:38:44.093Z,17.75
2018-01-14T22:41:11.938Z,18.40
2018-01-14T22:43:40.210Z,17.67
2018-01-14T22:46:07.868Z,18.92
2018-01-14T22:48:35.457Z,15.13
2018-01-14T22:51:03.203Z,15.32
2018-01-14T22:53:31.305Z,15.10
2018-01-14T22:55:59.132Z,14.85
2018-01-14T22:58:26.740Z,16.62
2018-01-14T23:00:54.284Z,16.60
2018-01-14T23:03:22.239Z,15.27
2018-01-14T23:05:50.271Z,16.35
2018-01-14T23:08:17.842Z,15.57
2018-01-14T23:10:45.374Z,15.93
2018-01-14T23:13:13.111Z,16.25
2018-01-14T23:15:41.033Z,14.57
2018-01-14T23:18:09.328Z,15.50
2018-01-14T23:20:36.915Z,16.70
2018-01-14T23:23:04.458Z,14.73
2018-01-14T23:25:32.009Z,14.05
2018-01-14T23:27:59.530Z,14.23
2018-01-14T23:30:27.195Z,15.30
2018-01-14T23:32:54.909Z,14.40
2018-01-14T23:35:22.457Z,15.30
2018-01-14T23:37:50.007Z,15.82
2018-01-14T23:40:17.677Z,14.57
2018-01-14T23:42:45.564Z,14.60
2018-01-14T23:45:13.110Z,15.07
2018-01-14T23:47:40.656Z,13.65
2018-01-14T23:50:08.256Z,14.40
2018-01-14T23:52:35.979Z,14.45
2018-01-14T23:55:03.541Z,15.35
2018-01-14T23:57:31.069Z,14.65
2018-01-14T23:59:59.396Z,15.00
